MSC Suez — HPMS — position and weather

sailwx.info

Track history (hours):
 
Tides and Currents Weather Stations Pressure Air Temp Water Temp Dewpoint Dewpoint Depression Visibility Wind Speed Wind Dir Waves Ship Positions

MSC Suez

Last reported at 2017-Feb-21 08:29 UTC. Time now 2017-Feb-21 10:06 UTC.
Position N 40°15' W 009°50'.

Length 237 m; draft 9.4 m.

Type: Ship. MMSI: 355289000.

Date/timePositionNaut miles runAvg speedWind from/ knotsBaromVisibWave heightAir tempDewpointWater temp
2017-Feb-21 08:29N 40°15' W 009°50'1818.8
2017-Feb-21 07:33N 39°57' W 009°51'1918.6
2017-Feb-21 06:33N 39°38' W 009°51'1818.4
2017-Feb-21 05:33N 39°20' W 009°52'1918.4
2017-Feb-21 04:33N 39°02' W 009°51'1818.3
2017-Feb-21 03:33N 38°43' W 009°51'1918.6
2017-Feb-21 02:33N 38°25' W 009°50'1818.4
2017-Feb-21 01:33N 38°06' W 009°50'1818.3
2017-Feb-21 00:33N 37°48' W 009°51'1818.2
2017-Feb-20 23:33N 37°30' W 009°51'1818.4
2017-Feb-20 22:33N 37°12' W 009°52'  
2017-Feb-18 09:08N 30°26' W 009°39'0 0.0
2017-Feb-18 08:32N 30°26' W 009°39'0 0.0
2017-Feb-18 06:23N 30°26' W 009°39'50 1.8
2017-Feb-17 02:32N 30°12' W 010°35'1716.0
2017-Feb-17 01:28N 30°09' W 010°54'1516.0
2017-Feb-17 00:33N 30°05' W 011°11'1615.8
2017-Feb-16 23:33N 30°02' W 011°28'1515.4
2017-Feb-16 22:33N 29°59' W 011°46'1615.8
2017-Feb-16 21:33N 29°55' W 012°03'1615.9
2017-Feb-16 20:34N 29°52' W 012°21'1615.9
2017-Feb-16 19:33N 29°49' W 012°39'1615.9
2017-Feb-16 18:33N 29°45' W 012°57'1615.9
2017-Feb-16 17:33N 29°42' W 013°15'1515.3
2017-Feb-16 16:33N 29°38' W 013°32'1414.5
2017-Feb-16 15:34N 29°31' W 013°47'1515.2
2017-Feb-16 14:34N 29°20' W 013°59'1515.0
2017-Feb-16 13:33N 29°10' W 014°11'1515.0
2017-Feb-16 12:34N 28°59' W 014°23'1515.3
2017-Feb-16 11:33N 28°48' W 014°36'1615.6
2017-Feb-16 10:33N 28°37' W 014°49'1515.3
2017-Feb-16 09:33N 28°27' W 015°01'1616.0
2017-Feb-16 08:33N 28°15' W 015°14'1212.2
2017-Feb-16 07:33N 28°08' W 015°25'0 0.1
2017-Feb-16 06:32N 28°08' W 015°25'0 0.0
2017-Feb-16 05:20N 28°08' W 015°25'0 0.0
2017-Feb-16 04:23N 28°08' W 015°25'0 0.0
2017-Feb-16 03:26N 28°08' W 015°25'0 0.0
2017-Feb-16 02:26N 28°08' W 015°25'0 0.0
2017-Feb-16 01:29N 28°08' W 015°25'0 0.0
2017-Feb-16 00:29N 28°08' W 015°25'0 0.0
2017-Feb-15 23:26N 28°08' W 015°25'0 0.0
2017-Feb-15 22:32N 28°08' W 015°25'0 0.0
2017-Feb-15 21:32N 28°08' W 015°25'0 0.0
2017-Feb-15 20:32N 28°08' W 015°25'0 0.0
2017-Feb-15 19:32N 28°08' W 015°25'0 0.0
2017-Feb-15 18:20N 28°08' W 015°25'0 0.0
2017-Feb-15 17:17N 28°08' W 015°25'0 0.0
2017-Feb-15 16:32N 28°08' W 015°25'0 0.0
2017-Feb-15 15:23N 28°08' W 015°25'0 0.0
2017-Feb-15 14:23N 28°08' W 015°25'0 0.0
2017-Feb-15 13:23N 28°08' W 015°25'0 0.0
2017-Feb-15 12:26N 28°08' W 015°25'0 0.0
2017-Feb-15 11:26N 28°08' W 015°25'0 0.0
2017-Feb-15 10:29N 28°08' W 015°25'0 0.0
2017-Feb-15 09:29N 28°08' W 015°25'0 0.0
2017-Feb-15 08:32N 28°08' W 015°25'0 0.0
2017-Feb-15 07:32N 28°08' W 015°25'1 0.5
2017-Feb-15 06:33N 28°07' W 015°25'5 5.3
2017-Feb-15 05:33N 28°04' W 015°20'9 9.0
2017-Feb-15 04:33N 27°57' W 015°14'1211.9
2017-Feb-15 03:33N 27°45' W 015°16'1212.0
2017-Feb-15 02:31N 27°33' W 015°20'67213.1
2017-Feb-12 23:18N 16°34' W 017°42'4315.2
2017-Feb-12 20:28N 15°51' W 017°43'1415.1
2017-Feb-12 19:33N 15°37' W 017°43'1515.1
2017-Feb-12 18:33N 15°22' W 017°44'1414.0
2017-Feb-12 17:33N 15°08' W 017°44'1211.3
2017-Feb-12 16:29N 14°56' W 017°44'5711.5
2017-Feb-12 11:33N 13°59' W 017°42'2914.5
2017-Feb-12 09:33N 13°30' W 017°41'2519.4
2017-Feb-12 08:17N 13°06' W 017°39'1216.5
2017-Feb-12 07:33N 12°54' W 017°39'3115.6
2017-Feb-12 05:34N 12°23' W 017°33'4715.7
2017-Feb-12 02:33N 11°38' W 017°18'1715.7
2017-Feb-12 01:27N 11°22' W 017°13'1615.7
2017-Feb-12 00:27N 11°07' W 017°08'  
Track history (hours):
 
Tides and Currents Weather Stations Pressure Air Temp Water Temp Dewpoint Dewpoint Depression Visibility Wind Speed Wind Dir Waves Ship Positions

MSC Suez

Last reported at 2017-Feb-21 08:29 UTC. Time now 2017-Feb-21 10:06 UTC.
Position N 40°15' W 009°50'.

Length 237 m; draft 9.4 m.

Type: Ship. MMSI: 355289000.

Date/timePositionNaut miles runAvg speedWind from/ knotsBaromVisibWave heightAir tempDewpointWater temp
2017-Feb-21 08:29N 40°15' W 009°50'1818.8
2017-Feb-21 07:33N 39°57' W 009°51'1918.6
2017-Feb-21 06:33N 39°38' W 009°51'1818.4
2017-Feb-21 05:33N 39°20' W 009°52'1918.4
2017-Feb-21 04:33N 39°02' W 009°51'1818.3
2017-Feb-21 03:33N 38°43' W 009°51'1918.6
2017-Feb-21 02:33N 38°25' W 009°50'1818.4
2017-Feb-21 01:33N 38°06' W 009°50'1818.3
2017-Feb-21 00:33N 37°48' W 009°51'1818.2
2017-Feb-20 23:33N 37°30' W 009°51'1818.4
2017-Feb-20 22:33N 37°12' W 009°52'  
2017-Feb-18 09:08N 30°26' W 009°39'0 0.0
2017-Feb-18 08:32N 30°26' W 009°39'0 0.0
2017-Feb-18 06:23N 30°26' W 009°39'50 1.8
2017-Feb-17 02:32N 30°12' W 010°35'1716.0
2017-Feb-17 01:28N 30°09' W 010°54'1516.0
2017-Feb-17 00:33N 30°05' W 011°11'1615.8
2017-Feb-16 23:33N 30°02' W 011°28'1515.4
2017-Feb-16 22:33N 29°59' W 011°46'1615.8
2017-Feb-16 21:33N 29°55' W 012°03'1615.9
2017-Feb-16 20:34N 29°52' W 012°21'1615.9
2017-Feb-16 19:33N 29°49' W 012°39'1615.9
2017-Feb-16 18:33N 29°45' W 012°57'1615.9
2017-Feb-16 17:33N 29°42' W 013°15'1515.3
2017-Feb-16 16:33N 29°38' W 013°32'1414.5
2017-Feb-16 15:34N 29°31' W 013°47'1515.2
2017-Feb-16 14:34N 29°20' W 013°59'1515.0
2017-Feb-16 13:33N 29°10' W 014°11'1515.0
2017-Feb-16 12:34N 28°59' W 014°23'1515.3
2017-Feb-16 11:33N 28°48' W 014°36'1615.6
2017-Feb-16 10:33N 28°37' W 014°49'1515.3
2017-Feb-16 09:33N 28°27' W 015°01'1616.0
2017-Feb-16 08:33N 28°15' W 015°14'1212.2
2017-Feb-16 07:33N 28°08' W 015°25'0 0.1
2017-Feb-16 06:32N 28°08' W 015°25'0 0.0
2017-Feb-16 05:20N 28°08' W 015°25'0 0.0
2017-Feb-16 04:23N 28°08' W 015°25'0 0.0
2017-Feb-16 03:26N 28°08' W 015°25'0 0.0
2017-Feb-16 02:26N 28°08' W 015°25'0 0.0
2017-Feb-16 01:29N 28°08' W 015°25'0 0.0
2017-Feb-16 00:29N 28°08' W 015°25'0 0.0
2017-Feb-15 23:26N 28°08' W 015°25'0 0.0
2017-Feb-15 22:32N 28°08' W 015°25'0 0.0
2017-Feb-15 21:32N 28°08' W 015°25'0 0.0
2017-Feb-15 20:32N 28°08' W 015°25'0 0.0
2017-Feb-15 19:32N 28°08' W 015°25'0 0.0
2017-Feb-15 18:20N 28°08' W 015°25'0 0.0
2017-Feb-15 17:17N 28°08' W 015°25'0 0.0
2017-Feb-15 16:32N 28°08' W 015°25'0 0.0
2017-Feb-15 15:23N 28°08' W 015°25'0 0.0
2017-Feb-15 14:23N 28°08' W 015°25'0 0.0
2017-Feb-15 13:23N 28°08' W 015°25'0 0.0
2017-Feb-15 12:26N 28°08' W 015°25'0 0.0
2017-Feb-15 11:26N 28°08' W 015°25'0 0.0
2017-Feb-15 10:29N 28°08' W 015°25'0 0.0
2017-Feb-15 09:29N 28°08' W 015°25'0 0.0
2017-Feb-15 08:32N 28°08' W 015°25'0 0.0
2017-Feb-15 07:32N 28°08' W 015°25'1 0.5
2017-Feb-15 06:33N 28°07' W 015°25'5 5.3
2017-Feb-15 05:33N 28°04' W 015°20'9 9.0
2017-Feb-15 04:33N 27°57' W 015°14'1211.9
2017-Feb-15 03:33N 27°45' W 015°16'1212.0
2017-Feb-15 02:31N 27°33' W 015°20'67213.1
2017-Feb-12 23:18N 16°34' W 017°42'4315.2
2017-Feb-12 20:28N 15°51' W 017°43'1415.1
2017-Feb-12 19:33N 15°37' W 017°43'1515.1
2017-Feb-12 18:33N 15°22' W 017°44'1414.0
2017-Feb-12 17:33N 15°08' W 017°44'1211.3
2017-Feb-12 16:29N 14°56' W 017°44'5711.5
2017-Feb-12 11:33N 13°59' W 017°42'2914.5
2017-Feb-12 09:33N 13°30' W 017°41'2519.4
2017-Feb-12 08:17N 13°06' W 017°39'1216.5
2017-Feb-12 07:33N 12°54' W 017°39'3115.6
2017-Feb-12 05:34N 12°23' W 017°33'4715.7
2017-Feb-12 02:33N 11°38' W 017°18'1715.7
2017-Feb-12 01:27N 11°22' W 017°13'1615.7
2017-Feb-12 00:27N 11°07' W 017°08'  

Dump ship's entire track history